createdAt,value
2018-02-14T00:01:59.675Z,8.52
2018-02-14T00:04:27.758Z,9.07
2018-02-14T00:06:55.957Z,10.10
2018-02-14T00:09:24.163Z,9.88
2018-02-14T00:11:52.337Z,6.50
2018-02-14T00:14:20.537Z,8.43
2018-02-14T00:16:48.737Z,14.15
2018-02-14T00:19:17.123Z,10.90
2018-02-14T00:21:45.437Z,9.30
2018-02-14T00:24:13.734Z,10.63
2018-02-14T00:26:42.016Z,9.68
2018-02-14T00:29:10.136Z,8.10
2018-02-14T00:31:38.529Z,7.07
2018-02-14T00:34:07.523Z,8.15
2018-02-14T00:36:35.717Z,8.15
2018-02-14T00:39:03.931Z,9.98
2018-02-14T00:41:32.102Z,10.32
2018-02-14T00:44:00.197Z,9.90
2018-02-14T00:46:28.399Z,6.57
2018-02-14T00:48:56.497Z,11.57
2018-02-14T00:51:24.681Z,9.25
2018-02-14T00:53:52.884Z,8.48
2018-02-14T00:56:21.060Z,12.70
2018-02-14T00:58:49.166Z,9.43
2018-02-14T01:01:17.456Z,7.22
2018-02-14T01:03:45.644Z,10.13
2018-02-14T01:06:13.956Z,8.70
2018-02-14T01:08:42.378Z,10.55
2018-02-14T01:11:10.662Z,7.05
2018-02-14T01:13:38.841Z,9.38
2018-02-14T01:16:07.136Z,9.45
2018-02-14T01:18:35.341Z,9.52
2018-02-14T01:21:03.516Z,7.35
2018-02-14T01:23:31.556Z,10.70
2018-02-14T01:25:59.697Z,10.48
2018-02-14T01:28:27.915Z,6.75
2018-02-14T01:30:56.438Z,9.90
2018-02-14T01:33:24.796Z,4.80
2018-02-14T01:35:52.978Z,9.48
2018-02-14T01:38:21.495Z,6.50
2018-02-14T01:40:49.697Z,8.07
2018-02-14T01:43:18.434Z,6.60
2018-02-14T01:45:47.398Z,7.60
2018-02-14T01:48:15.958Z,6.22
2018-02-14T01:50:44.865Z,6.97
2018-02-14T01:53:13.922Z,8.98
2018-02-14T01:55:42.782Z,5.68
2018-02-14T01:58:11.566Z,9.68
2018-02-14T02:00:40.149Z,6.50
2018-02-14T02:03:09.819Z,5.97
2018-02-14T02:05:38.800Z,9.85
2018-02-14T02:08:07.696Z,5.80
2018-02-14T02:10:36.439Z,6.90
2018-02-14T02:13:05.219Z,9.05
2018-02-14T02:15:33.619Z,7.18
2018-02-14T02:18:02.685Z,8.15
2018-02-14T02:20:31.435Z,10.57
2018-02-14T02:23:00.059Z,6.30
2018-02-14T02:25:30.200Z,8.65
2018-02-14T02:27:58.678Z,6.43
2018-02-14T02:30:27.045Z,10.38
2018-02-14T02:32:56.296Z,9.80
2018-02-14T02:35:24.914Z,6.20
2018-02-14T02:37:53.797Z,4.35
2018-02-14T02:40:22.846Z,5.35
2018-02-14T02:42:51.522Z,6.93
2018-02-14T02:45:20.040Z,5.65
2018-02-14T02:47:49.714Z,9.20
2018-02-14T02:50:19.080Z,8.40
2018-02-14T02:52:47.488Z,8.52
2018-02-14T02:55:16.383Z,5.60
2018-02-14T02:57:44.895Z,5.87
2018-02-14T03:00:13.503Z,11.57
2018-02-14T03:02:41.785Z,6.10
2018-02-14T03:05:09.879Z,6.90
2018-02-14T03:07:38.096Z,4.47
2018-02-14T03:10:06.282Z,4.03
2018-02-14T03:12:34.480Z,5.97
2018-02-14T03:15:02.598Z,5.80
2018-02-14T03:17:30.760Z,5.12
2018-02-14T03:19:59.160Z,6.07
2018-02-14T03:22:28.339Z,5.53
2018-02-14T03:24:56.339Z,9.18
2018-02-14T03:27:24.558Z,7.00
2018-02-14T03:29:52.642Z,4.07
2018-02-14T03:32:21.078Z,9.32
2018-02-14T03:34:49.348Z,6.53
2018-02-14T03:37:17.634Z,12.48
2018-02-14T03:39:45.833Z,4.97
2018-02-14T03:42:14.098Z,13.32
2018-02-14T03:44:42.419Z,5.32
2018-02-14T03:47:11.745Z,5.80
2018-02-14T03:49:39.898Z,5.15
2018-02-14T03:52:08.243Z,7.18
2018-02-14T03:54:36.823Z,5.93
2018-02-14T03:57:04.995Z,9.25
2018-02-14T03:59:33.363Z,6.28
2018-02-14T04:02:01.760Z,6.68
2018-02-14T04:04:29.941Z,3.70
2018-02-14T04:06:58.018Z,7.07
2018-02-14T04:09:26.420Z,6.78
2018-02-14T04:11:54.798Z,5.00
2018-02-14T04:14:23.303Z,5.00
2018-02-14T04:16:51.535Z,3.87
2018-02-14T04:19:19.859Z,5.37
2018-02-14T04:21:48.420Z,7.15
2018-02-14T04:24:16.715Z,3.87
2018-02-14T04:26:45.314Z,9.73
2018-02-14T04:29:14.125Z,8.07
2018-02-14T04:31:42.884Z,5.80
2018-02-14T04:34:11.318Z,6.32
2018-02-14T04:36:39.567Z,7.07
2018-02-14T04:39:08.144Z,10.00
2018-02-14T04:41:36.424Z,7.28
2018-02-14T04:44:04.800Z,7.55
2018-02-14T04:46:32.960Z,6.20
2018-02-14T04:49:01.522Z,7.95
2018-02-14T04:51:29.658Z,6.18
2018-02-14T04:53:57.994Z,13.15
2018-02-14T04:56:26.200Z,11.57
2018-02-14T04:58:54.515Z,18.45
2018-02-14T05:01:22.894Z,7.43
2018-02-14T05:03:51.204Z,5.00
2018-02-14T05:06:19.378Z,4.65
2018-02-14T05:08:47.585Z,7.53
2018-02-14T05:11:15.717Z,4.18
2018-02-14T05:13:44.060Z,5.80
2018-02-14T05:16:12.358Z,2.97
2018-02-14T05:18:40.561Z,6.57
2018-02-14T05:21:08.638Z,2.10
2018-02-14T05:23:37.840Z,8.70
2018-02-14T05:26:06.003Z,6.05
2018-02-14T05:28:34.297Z,5.93
2018-02-14T05:31:02.568Z,7.43
2018-02-14T05:33:30.619Z,3.75
2018-02-14T05:35:58.834Z,5.60
2018-02-14T05:38:27.054Z,4.72
2018-02-14T05:40:55.579Z,3.92
2018-02-14T05:43:23.835Z,8.13
2018-02-14T05:45:52.139Z,4.93
2018-02-14T05:48:20.259Z,3.80
2018-02-14T05:50:48.427Z,7.45
2018-02-14T05:53:16.624Z,3.87
2018-02-14T05:55:44.737Z,9.52
2018-02-14T05:58:12.999Z,8.73
2018-02-14T06:00:41.114Z,6.57
2018-02-14T06:03:09.194Z,7.15
2018-02-14T06:05:37.378Z,23.52
2018-02-14T06:08:05.482Z,11.10
2018-02-14T06:10:33.670Z,4.53
2018-02-14T06:13:01.752Z,6.85
2018-02-14T06:15:29.867Z,7.93
2018-02-14T06:17:57.935Z,25.05
2018-02-14T06:20:27.057Z,27.73
2018-02-14T06:22:55.200Z,11.02
2018-02-14T06:25:23.492Z,15.18
2018-02-14T06:27:51.839Z,5.93
2018-02-14T06:30:20.241Z,6.22
2018-02-14T06:32:48.617Z,10.30
2018-02-14T06:35:17.247Z,10.10
2018-02-14T06:37:45.339Z,9.85
2018-02-14T06:40:13.490Z,11.60
2018-02-14T06:42:41.838Z,13.73
2018-02-14T06:45:10.019Z,11.95
2018-02-14T06:47:38.115Z,16.02
2018-02-14T06:50:06.275Z,14.07
2018-02-14T06:52:34.601Z,10.60
2018-02-14T06:55:02.920Z,7.65
2018-02-14T06:57:31.117Z,9.55
2018-02-14T06:59:59.557Z,9.27
2018-02-14T07:02:28.348Z,8.80
2018-02-14T07:04:57.604Z,9.38
2018-02-14T07:07:26.315Z,9.80
2018-02-14T07:09:54.715Z,9.90
2018-02-14T07:12:23.224Z,15.02
2018-02-14T07:14:51.528Z,15.40
2018-02-14T07:17:19.821Z,9.43
2018-02-14T07:19:48.022Z,15.55
2018-02-14T07:22:16.219Z,16.35
2018-02-14T07:24:44.404Z,19.95
2018-02-14T07:27:12.601Z,12.40
2018-02-14T07:29:40.801Z,12.60
2018-02-14T07:32:08.884Z,18.75
2018-02-14T07:34:37.084Z,13.57
2018-02-14T07:37:05.178Z,12.15
2018-02-14T07:39:33.365Z,14.82
2018-02-14T07:42:01.468Z,17.77
2018-02-14T07:44:29.756Z,11.50
2018-02-14T07:46:58.060Z,11.93
2018-02-14T07:49:26.459Z,11.38
2018-02-14T07:51:54.650Z,14.40
2018-02-14T07:54:22.943Z,11.18
2018-02-14T07:56:51.338Z,11.25
2018-02-14T07:59:19.536Z,11.63
2018-02-14T08:01:47.736Z,11.02
2018-02-14T08:04:15.928Z,13.62
2018-02-14T08:06:44.223Z,15.63
2018-02-14T08:09:12.451Z,17.48
2018-02-14T08:11:40.607Z,20.40
2018-02-14T08:14:08.808Z,17.95
2018-02-14T08:16:36.887Z,17.50
2018-02-14T08:19:05.021Z,20.90
2018-02-14T08:21:33.203Z,19.08
2018-02-14T08:24:01.489Z,10.40
2018-02-14T08:26:29.728Z,8.57
2018-02-14T08:28:58.067Z,7.70
2018-02-14T08:31:26.367Z,9.13
2018-02-14T08:33:54.583Z,9.23
2018-02-14T08:36:22.726Z,8.55
2018-02-14T08:38:51.054Z,10.45
2018-02-14T08:41:19.256Z,7.75
2018-02-14T08:43:47.435Z,9.52
2018-02-14T08:46:15.644Z,8.48
2018-02-14T08:48:43.737Z,12.82
2018-02-14T08:51:11.923Z,11.20
2018-02-14T08:53:40.121Z,13.60
2018-02-14T08:56:08.320Z,12.40
2018-02-14T08:58:36.405Z,12.32
2018-02-14T09:01:04.602Z,12.27
2018-02-14T09:03:32.900Z,10.67
2018-02-14T09:06:01.184Z,14.38
2018-02-14T09:08:29.503Z,12.05
2018-02-14T09:10:58.002Z,14.25
2018-02-14T09:13:26.395Z,12.95
2018-02-14T09:15:54.604Z,11.57
2018-02-14T09:18:22.775Z,14.30
2018-02-14T09:20:51.024Z,9.23
2018-02-14T09:23:19.064Z,10.25
2018-02-14T09:25:47.244Z,12.95
2018-02-14T09:28:15.367Z,12.90
2018-02-14T09:30:43.483Z,8.13
2018-02-14T09:33:11.545Z,8.95
2018-02-14T09:35:39.824Z,16.02
2018-02-14T09:38:08.024Z,15.00
2018-02-14T09:40:36.225Z,10.50
2018-02-14T09:43:04.324Z,7.53
2018-02-14T09:45:32.508Z,8.05
2018-02-14T09:48:00.608Z,8.20
2018-02-14T09:50:28.802Z,9.55
2018-02-14T09:52:56.883Z,10.93
2018-02-14T09:55:25.183Z,9.32
2018-02-14T09:57:53.277Z,8.05
2018-02-14T10:00:21.420Z,7.40
2018-02-14T10:02:49.436Z,9.88
2018-02-14T10:05:17.660Z,6.45
2018-02-14T10:07:45.834Z,6.87
2018-02-14T10:10:14.548Z,5.85
2018-02-14T10:12:42.752Z,6.28
2018-02-14T10:15:10.939Z,6.93
2018-02-14T10:17:38.980Z,10.90
2018-02-14T10:20:07.140Z,11.45
2018-02-14T10:22:35.354Z,10.80
2018-02-14T10:25:03.517Z,7.60
2018-02-14T10:27:31.617Z,6.45
2018-02-14T10:30:00.718Z,6.60
2018-02-14T10:32:28.928Z,8.30
2018-02-14T10:34:57.110Z,9.95
2018-02-14T10:37:25.309Z,7.20
2018-02-14T10:39:53.494Z,5.10
2018-02-14T10:42:21.547Z,9.68
2018-02-14T10:44:49.636Z,6.85
2018-02-14T10:47:17.881Z,7.15
2018-02-14T10:49:46.063Z,5.12
2018-02-14T10:52:14.262Z,7.00
2018-02-14T10:54:42.365Z,5.55
2018-02-14T10:57:10.461Z,5.93
2018-02-14T10:59:38.867Z,5.03
2018-02-14T11:02:07.354Z,5.82
2018-02-14T11:04:35.408Z,5.22
2018-02-14T11:07:03.557Z,4.78
2018-02-14T11:09:31.737Z,5.82
2018-02-14T11:11:59.948Z,9.45
2018-02-14T11:14:28.215Z,4.93
2018-02-14T11:16:57.245Z,4.87
2018-02-14T11:19:25.443Z,12.45
2018-02-14T11:21:53.754Z,4.22
2018-02-14T11:24:21.851Z,10.65
2018-02-14T11:26:49.920Z,11.80
2018-02-14T11:29:18.206Z,5.07
2018-02-14T11:31:46.406Z,8.73
2018-02-14T11:34:14.497Z,10.68
2018-02-14T11:36:42.679Z,9.80
2018-02-14T11:39:10.784Z,9.93
2018-02-14T11:41:39.182Z,9.40
2018-02-14T11:44:07.480Z,8.48
2018-02-14T11:46:35.767Z,8.68
2018-02-14T11:49:03.959Z,6.70
2018-02-14T11:51:32.156Z,7.03
2018-02-14T11:54:00.352Z,7.00
2018-02-14T11:56:28.554Z,6.70
2018-02-14T11:58:56.544Z,5.60
2018-02-14T12:01:24.741Z,6.23
2018-02-14T12:03:52.828Z,5.00
2018-02-14T12:06:21.121Z,5.50
2018-02-14T12:08:49.141Z,4.67
2018-02-14T12:11:17.308Z,3.90
2018-02-14T12:13:45.402Z,3.85
2018-02-14T12:16:13.593Z,5.85
2018-02-14T12:18:41.794Z,4.28
2018-02-14T12:21:09.884Z,4.78
2018-02-14T12:23:38.186Z,3.62
2018-02-14T12:26:06.480Z,5.28
2018-02-14T12:28:34.554Z,4.10
2018-02-14T12:31:02.772Z,5.28
2018-02-14T12:33:30.857Z,4.50
2018-02-14T12:35:59.039Z,3.03
2018-02-14T12:38:27.239Z,3.35
2018-02-14T12:40:55.435Z,3.50
2018-02-14T12:43:23.822Z,2.95
2018-02-14T12:45:51.920Z,3.47
2018-02-14T12:48:20.122Z,3.70
2018-02-14T12:50:48.218Z,5.62
2018-02-14T12:53:16.162Z,3.85
2018-02-14T12:55:44.299Z,3.53
2018-02-14T12:58:12.418Z,2.30
2018-02-14T13:00:40.684Z,2.50
2018-02-14T13:03:08.916Z,3.60
2018-02-14T13:05:36.873Z,3.40
2018-02-14T13:08:05.054Z,3.95
2018-02-14T13:10:33.254Z,4.57
2018-02-14T13:13:01.438Z,3.65
2018-02-14T13:15:29.639Z,3.20
2018-02-14T13:17:57.838Z,2.65
2018-02-14T13:20:25.937Z,2.55
2018-02-14T13:22:54.098Z,3.05
2018-02-14T13:25:22.219Z,6.80
2018-02-14T13:27:50.419Z,3.50
2018-02-14T13:30:18.499Z,3.20
2018-02-14T13:32:46.571Z,3.55
2018-02-14T13:35:14.638Z,2.33
2018-02-14T13:37:42.717Z,2.40
2018-02-14T13:40:10.763Z,3.50
2018-02-14T13:42:38.962Z,4.57
2018-02-14T13:45:07.057Z,3.50
2018-02-14T13:47:35.241Z,2.60
2018-02-14T13:50:03.381Z,14.38
2018-02-14T13:52:31.546Z,3.05
2018-02-14T13:54:59.639Z,2.75
2018-02-14T13:57:27.717Z,3.80
2018-02-14T13:59:55.735Z,3.67
2018-02-14T14:02:26.057Z,6.72
2018-02-14T14:04:54.137Z,4.25
2018-02-14T14:07:22.434Z,5.10
2018-02-14T14:09:50.535Z,4.32
2018-02-14T14:12:18.735Z,3.20
2018-02-14T14:14:46.815Z,3.67
2018-02-14T14:17:15.015Z,3.58
2018-02-14T14:19:43.118Z,3.53
2018-02-14T14:22:11.297Z,5.95
2018-02-14T14:24:39.439Z,3.25
2018-02-14T14:27:07.798Z,4.25
2018-02-14T14:29:35.979Z,3.17
2018-02-14T14:32:04.219Z,4.37
2018-02-14T14:34:32.376Z,3.85
2018-02-14T14:37:00.449Z,10.82
2018-02-14T14:39:28.771Z,3.03
2018-02-14T14:41:57.067Z,3.67
2018-02-14T14:44:26.198Z,9.38
2018-02-14T14:46:54.579Z,5.35
2018-02-14T14:49:22.543Z,5.60
2018-02-14T14:51:50.767Z,3.10
2018-02-14T14:54:18.919Z,7.32
2018-02-14T14:56:48.330Z,5.32
2018-02-14T14:59:16.418Z,8.52
2018-02-14T15:01:44.755Z,4.80
2018-02-14T15:04:12.965Z,4.37
2018-02-14T15:06:41.060Z,3.83
2018-02-14T15:09:09.336Z,5.35
2018-02-14T15:11:37.638Z,6.35
2018-02-14T15:14:05.838Z,10.82
2018-02-14T15:16:33.919Z,6.53
2018-02-14T15:19:02.123Z,7.82
2018-02-14T15:21:30.219Z,6.43
2018-02-14T15:23:58.418Z,4.15
2018-02-14T15:26:26.603Z,5.97
2018-02-14T15:28:54.795Z,6.55
2018-02-14T15:31:22.896Z,7.75
2018-02-14T15:33:51.080Z,9.25
2018-02-14T15:36:19.179Z,6.57
2018-02-14T15:38:47.279Z,7.28
2018-02-14T15:41:15.480Z,9.25
2018-02-14T15:43:43.758Z,10.68
2018-02-14T15:46:12.177Z,7.05
2018-02-14T15:48:40.565Z,9.60
2018-02-14T15:51:08.765Z,15.35
2018-02-14T15:53:36.892Z,8.38
2018-02-14T15:56:05.058Z,9.45
2018-02-14T15:58:33.947Z,9.35
2018-02-14T16:01:02.046Z,9.30
2018-02-14T16:03:30.245Z,11.90
2018-02-14T16:05:58.340Z,8.70
2018-02-14T16:08:26.521Z,9.80
2018-02-14T16:10:54.817Z,11.40
2018-02-14T16:13:22.986Z,11.68
2018-02-14T16:15:51.103Z,10.82
2018-02-14T16:18:19.123Z,8.50
2018-02-14T16:20:47.165Z,9.68
2018-02-14T16:23:15.499Z,10.07
2018-02-14T16:25:43.674Z,7.93
2018-02-14T16:28:12.074Z,9.43
2018-02-14T16:30:40.297Z,12.55
2018-02-14T16:33:08.670Z,20.15
2018-02-14T16:35:36.866Z,14.75
2018-02-14T16:38:05.084Z,14.23
2018-02-14T16:40:33.365Z,20.58
2018-02-14T16:43:01.554Z,20.52
2018-02-14T16:45:30.625Z,18.45
2018-02-14T16:47:58.768Z,19.55
2018-02-14T16:50:26.843Z,15.98
2018-02-14T16:52:55.046Z,17.37
2018-02-14T16:55:23.059Z,15.07
2018-02-14T16:57:51.248Z,15.63
2018-02-14T17:00:19.432Z,19.48
2018-02-14T17:02:47.699Z,11.05
2018-02-14T17:05:15.919Z,10.00
2018-02-14T17:07:44.323Z,12.73
2018-02-14T17:10:12.746Z,19.52
2018-02-14T17:12:42.239Z,14.20
2018-02-14T17:15:10.423Z,12.10
2018-02-14T17:17:38.638Z,13.52
2018-02-14T17:20:06.820Z,14.63
2018-02-14T17:22:34.945Z,12.48
2018-02-14T17:25:03.100Z,14.85
2018-02-14T17:27:31.202Z,12.90
2018-02-14T17:29:59.481Z,15.38
2018-02-14T17:32:27.697Z,12.77
2018-02-14T17:34:55.827Z,17.87
2018-02-14T17:37:23.877Z,12.70
2018-02-14T17:39:52.086Z,17.23
2018-02-14T17:42:20.375Z,16.12
2018-02-14T17:44:48.714Z,17.73
2018-02-14T17:47:17.254Z,18.12
2018-02-14T17:49:45.564Z,17.37
2018-02-14T17:52:13.649Z,11.05
2018-02-14T17:54:41.767Z,18.35
2018-02-14T17:57:10.145Z,19.65
2018-02-14T17:59:38.866Z,14.00
2018-02-14T18:02:07.054Z,22.02
2018-02-14T18:04:35.108Z,17.45
2018-02-14T18:07:03.327Z,15.00
2018-02-14T18:09:31.476Z,15.43
2018-02-14T18:11:59.581Z,15.40
2018-02-14T18:14:27.915Z,14.55
2018-02-14T18:16:56.263Z,18.70
2018-02-14T18:19:24.438Z,17.85
2018-02-14T18:21:52.611Z,13.90
2018-02-14T18:24:20.779Z,19.25
2018-02-14T18:26:48.890Z,18.40
2018-02-14T18:29:17.419Z,14.18
2018-02-14T18:31:45.579Z,20.27
2018-02-14T18:34:13.674Z,20.67
2018-02-14T18:36:41.676Z,19.45
2018-02-14T18:39:09.757Z,15.43
2018-02-14T18:41:37.866Z,22.55
2018-02-14T18:44:06.156Z,20.20
2018-02-14T18:46:34.277Z,22.95
2018-02-14T18:49:02.877Z,17.40
2018-02-14T18:51:31.346Z,14.15
2018-02-14T18:53:59.859Z,21.90
2018-02-14T18:56:28.652Z,26.80
2018-02-14T18:58:57.353Z,18.20
2018-02-14T19:01:25.863Z,23.83
2018-02-14T19:03:54.448Z,23.25
2018-02-14T19:06:23.467Z,18.08
2018-02-14T19:08:52.460Z,21.15
2018-02-14T19:11:21.320Z,24.30
2018-02-14T19:13:50.561Z,31.40
2018-02-14T19:16:22.999Z,22.17
2018-02-14T19:18:51.587Z,26.10
2018-02-14T19:21:19.947Z,20.27
2018-02-14T19:23:49.149Z,21.27
2018-02-14T19:26:17.347Z,29.67
2018-02-14T19:28:45.586Z,26.25
2018-02-14T19:31:13.729Z,26.23
2018-02-14T19:33:42.107Z,21.23
2018-02-14T19:36:10.468Z,26.15
2018-02-14T19:38:38.787Z,20.30
2018-02-14T19:41:06.868Z,27.23
2018-02-14T19:43:34.928Z,17.08
2018-02-14T19:46:03.169Z,21.65
2018-02-14T19:48:31.269Z,14.65
2018-02-14T19:50:59.350Z,18.12
2018-02-14T19:53:27.557Z,24.52
2018-02-14T19:55:55.648Z,16.85
2018-02-14T19:58:23.756Z,22.45
2018-02-14T20:00:52.144Z,25.20
2018-02-14T20:03:20.326Z,17.60
2018-02-14T20:05:48.523Z,16.17
2018-02-14T20:08:16.619Z,18.40
2018-02-14T20:10:44.823Z,30.25
2018-02-14T20:13:13.051Z,25.70
2018-02-14T20:15:41.207Z,17.23
2018-02-14T20:18:09.288Z,24.65
2018-02-14T20:20:37.488Z,32.20
2018-02-14T20:23:05.591Z,24.02
2018-02-14T20:25:33.773Z,26.85
2018-02-14T20:28:01.978Z,30.02
2018-02-14T20:30:30.062Z,20.25
2018-02-14T20:32:58.253Z,29.85
2018-02-14T20:35:26.461Z,22.73
2018-02-14T20:37:54.553Z,24.58
2018-02-14T20:40:22.727Z,26.50
2018-02-14T20:42:50.919Z,26.80
2018-02-14T20:45:19.125Z,15.20
2018-02-14T20:47:47.424Z,18.17
2018-02-14T20:50:15.512Z,16.30
2018-02-14T20:52:43.613Z,21.55
2018-02-14T20:55:11.793Z,16.17
2018-02-14T20:57:39.959Z,20.62
2018-02-14T21:00:08.092Z,16.92
2018-02-14T21:02:36.175Z,21.35
2018-02-14T21:05:04.375Z,18.92
2018-02-14T21:07:32.560Z,16.15
2018-02-14T21:10:00.659Z,15.23
2018-02-14T21:12:28.762Z,16.55
2018-02-14T21:14:56.947Z,18.98
2018-02-14T21:17:25.146Z,22.17
2018-02-14T21:19:53.323Z,24.08
2018-02-14T21:22:21.423Z,23.58
2018-02-14T21:24:49.622Z,24.25
2018-02-14T21:27:17.725Z,18.90
2018-02-14T21:29:46.615Z,20.30
2018-02-14T21:32:14.713Z,28.42
2018-02-14T21:34:42.913Z,19.50
2018-02-14T21:37:11.112Z,21.55
2018-02-14T21:39:39.206Z,24.42
2018-02-14T21:42:07.799Z,18.85
2018-02-14T21:44:35.902Z,20.08
2018-02-14T21:47:03.991Z,20.40
2018-02-14T21:49:33.106Z,17.02
2018-02-14T21:52:01.182Z,17.83
2018-02-14T21:54:29.285Z,16.35
2018-02-14T21:56:57.408Z,19.87
2018-02-14T21:59:25.668Z,16.90
2018-02-14T22:01:53.951Z,16.17
2018-02-14T22:04:22.164Z,15.05
2018-02-14T22:06:50.552Z,14.32
2018-02-14T22:09:20.343Z,21.20
2018-02-14T22:11:49.440Z,21.40
2018-02-14T22:14:18.398Z,26.75
2018-02-14T22:16:46.835Z,16.92
2018-02-14T22:19:15.842Z,18.98
2018-02-14T22:21:44.240Z,18.58
2018-02-14T22:24:12.476Z,15.88
2018-02-14T22:26:41.055Z,18.33
2018-02-14T22:29:10.041Z,17.50
2018-02-14T22:31:41.538Z,16.30
2018-02-14T22:34:09.898Z,12.73
2018-02-14T22:36:38.478Z,14.18
2018-02-14T22:39:07.009Z,17.08
2018-02-14T22:41:35.948Z,10.82
2018-02-14T22:44:04.529Z,15.38
2018-02-14T22:46:33.993Z,10.80
2018-02-14T22:49:02.344Z,15.63
2018-02-14T22:51:32.515Z,13.32
2018-02-14T22:54:01.195Z,15.60
2018-02-14T22:56:29.782Z,17.25
2018-02-14T22:58:58.180Z,16.40
2018-02-14T23:01:29.075Z,11.02
2018-02-14T23:03:57.995Z,11.18
2018-02-14T23:06:27.262Z,11.52
2018-02-14T23:08:55.557Z,9.75
2018-02-14T23:11:23.988Z,10.07
2018-02-14T23:13:52.370Z,11.85
2018-02-14T23:16:20.562Z,11.07
2018-02-14T23:18:48.782Z,10.63
2018-02-14T23:21:17.051Z,9.45
2018-02-14T23:23:45.322Z,7.72
2018-02-14T23:26:13.539Z,10.27
2018-02-14T23:28:41.840Z,12.27
2018-02-14T23:31:10.244Z,8.85
2018-02-14T23:33:38.411Z,12.95
2018-02-14T23:36:06.838Z,10.20
2018-02-14T23:38:35.022Z,8.85
2018-02-14T23:41:03.325Z,10.27
2018-02-14T23:43:31.621Z,8.55
2018-02-14T23:46:00.979Z,9.10
2018-02-14T23:48:29.231Z,17.12
2018-02-14T23:50:57.535Z,13.40
2018-02-14T23:53:25.936Z,14.48
2018-02-14T23:55:54.338Z,10.38
2018-02-14T23:58:22.637Z,8.85
